sensor_id;sensor_type;location;lat;lon;timestamp;P1;durP1;ratioP1;P2;durP2;ratioP2
59159;SDS011;44941;45.058;20.076;2023-04-05T00:01:02;7.47;;;2.58;;
59159;SDS011;44941;45.058;20.076;2023-04-05T00:03:31;7.75;;;2.70;;
59159;SDS011;44941;45.058;20.076;2023-04-05T00:05:57;7.30;;;2.75;;
59159;SDS011;44941;45.058;20.076;2023-04-05T00:08:24;6.85;;;2.47;;
59159;SDS011;44941;45.058;20.076;2023-04-05T00:10:52;7.35;;;3.15;;
59159;SDS011;44941;45.058;20.076;2023-04-05T00:13:19;6.75;;;2.95;;
59159;SDS011;44941;45.058;20.076;2023-04-05T00:15:46;9.07;;;3.03;;
59159;SDS011;44941;45.058;20.076;2023-04-05T00:18:12;11.95;;;4.20;;
59159;SDS011;44941;45.058;20.076;2023-04-05T00:20:46;11.70;;;5.13;;
59159;SDS011;44941;45.058;20.076;2023-04-05T00:23:13;10.75;;;3.40;;
59159;SDS011;44941;45.058;20.076;2023-04-05T00:25:40;6.57;;;2.50;;
59159;SDS011;44941;45.058;20.076;2023-04-05T00:28:06;5.05;;;2.30;;
59159;SDS011;44941;45.058;20.076;2023-04-05T00:30:32;5.53;;;2.33;;
59159;SDS011;44941;45.058;20.076;2023-04-05T00:33:01;6.38;;;2.50;;
59159;SDS011;44941;45.058;20.076;2023-04-05T00:35:27;5.85;;;2.40;;
59159;SDS011;44941;45.058;20.076;2023-04-05T00:37:53;8.40;;;3.25;;
59159;SDS011;44941;45.058;20.076;2023-04-05T00:40:20;8.85;;;2.90;;
59159;SDS011;44941;45.058;20.076;2023-04-05T00:42:46;8.50;;;2.72;;
59159;SDS011;44941;45.058;20.076;2023-04-05T00:45:19;11.75;;;2.60;;
59159;SDS011;44941;45.058;20.076;2023-04-05T00:47:45;5.13;;;2.08;;
59159;SDS011;44941;45.058;20.076;2023-04-05T00:50:11;7.22;;;2.42;;
59159;SDS011;44941;45.058;20.076;2023-04-05T00:52:38;6.90;;;2.30;;
59159;SDS011;44941;45.058;20.076;2023-04-05T00:55:07;4.97;;;2.20;;
59159;SDS011;44941;45.058;20.076;2023-04-05T00:57:35;6.10;;;2.33;;
59159;SDS011;44941;45.058;20.076;2023-04-05T01:00:05;6.07;;;2.10;;
59159;SDS011;44941;45.058;20.076;2023-04-05T01:02:55;4.75;;;1.83;;
59159;SDS011;44941;45.058;20.076;2023-04-05T01:08:03;10.45;;;2.55;;
59159;SDS011;44941;45.058;20.076;2023-04-05T01:10:34;5.35;;;2.15;;
59159;SDS011;44941;45.058;20.076;2023-04-05T01:13:02;7.03;;;2.08;;
59159;SDS011;44941;45.058;20.076;2023-04-05T01:15:40;7.93;;;2.58;;
59159;SDS011;44941;45.058;20.076;2023-04-05T01:18:06;8.60;;;2.40;;
59159;SDS011;44941;45.058;20.076;2023-04-05T01:20:36;8.95;;;2.50;;
59159;SDS011;44941;45.058;20.076;2023-04-05T01:31:28;5.05;;;2.08;;
59159;SDS011;44941;45.058;20.076;2023-04-05T01:36:39;8.13;;;2.78;;
59159;SDS011;44941;45.058;20.076;2023-04-05T01:39:07;5.53;;;2.60;;
59159;SDS011;44941;45.058;20.076;2023-04-05T01:41:33;7.22;;;2.28;;
59159;SDS011;44941;45.058;20.076;2023-04-05T01:44:00;5.45;;;2.60;;
59159;SDS011;44941;45.058;20.076;2023-04-05T01:46:26;5.70;;;2.55;;
59159;SDS011;44941;45.058;20.076;2023-04-05T01:48:52;6.00;;;2.70;;
59159;SDS011;44941;45.058;20.076;2023-04-05T01:51:18;7.70;;;2.42;;
59159;SDS011;44941;45.058;20.076;2023-04-05T01:53:45;7.93;;;3.13;;
59159;SDS011;44941;45.058;20.076;2023-04-05T01:56:11;8.15;;;2.78;;
59159;SDS011;44941;45.058;20.076;2023-04-05T01:58:37;5.57;;;2.88;;
59159;SDS011;44941;45.058;20.076;2023-04-05T02:01:03;5.85;;;2.33;;
59159;SDS011;44941;45.058;20.076;2023-04-05T02:03:29;7.75;;;2.30;;
59159;SDS011;44941;45.058;20.076;2023-04-05T02:05:55;6.65;;;2.90;;
59159;SDS011;44941;45.058;20.076;2023-04-05T02:08:22;5.57;;;2.67;;
59159;SDS011;44941;45.058;20.076;2023-04-05T02:11:00;6.82;;;2.53;;
59159;SDS011;44941;45.058;20.076;2023-04-05T02:13:26;5.60;;;2.58;;
59159;SDS011;44941;45.058;20.076;2023-04-05T02:15:52;5.32;;;2.65;;
59159;SDS011;44941;45.058;20.076;2023-04-05T02:18:18;7.57;;;2.90;;
59159;SDS011;44941;45.058;20.076;2023-04-05T02:20:59;7.47;;;2.78;;
59159;SDS011;44941;45.058;20.076;2023-04-05T02:23:26;6.40;;;3.03;;
59159;SDS011;44941;45.058;20.076;2023-04-05T02:25:54;5.80;;;2.55;;
59159;SDS011;44941;45.058;20.076;2023-04-05T02:28:20;5.30;;;2.53;;
59159;SDS011;44941;45.058;20.076;2023-04-05T02:30:47;7.07;;;2.85;;
59159;SDS011;44941;45.058;20.076;2023-04-05T02:33:13;7.53;;;2.83;;
59159;SDS011;44941;45.058;20.076;2023-04-05T02:35:49;7.28;;;2.85;;
59159;SDS011;44941;45.058;20.076;2023-04-05T02:38:26;7.00;;;3.00;;
59159;SDS011;44941;45.058;20.076;2023-04-05T02:40:52;6.43;;;2.63;;
59159;SDS011;44941;45.058;20.076;2023-04-05T02:43:18;7.82;;;3.20;;
59159;SDS011;44941;45.058;20.076;2023-04-05T02:45:44;7.38;;;3.00;;
59159;SDS011;44941;45.058;20.076;2023-04-05T02:48:10;6.85;;;2.78;;
59159;SDS011;44941;45.058;20.076;2023-04-05T02:50:36;8.88;;;3.38;;
59159;SDS011;44941;45.058;20.076;2023-04-05T02:53:14;5.68;;;2.80;;
59159;SDS011;44941;45.058;20.076;2023-04-05T02:55:50;7.72;;;2.92;;
59159;SDS011;44941;45.058;20.076;2023-04-05T02:58:24;8.75;;;3.20;;
59159;SDS011;44941;45.058;20.076;2023-04-05T03:00:50;8.52;;;2.90;;
59159;SDS011;44941;45.058;20.076;2023-04-05T03:03:18;5.80;;;2.83;;
59159;SDS011;44941;45.058;20.076;2023-04-05T03:05:45;7.80;;;3.10;;
59159;SDS011;44941;45.058;20.076;2023-04-05T03:08:12;6.40;;;3.13;;
59159;SDS011;44941;45.058;20.076;2023-04-05T03:10:42;8.55;;;3.08;;
59159;SDS011;44941;45.058;20.076;2023-04-05T03:13:09;6.63;;;3.00;;
59159;SDS011;44941;45.058;20.076;2023-04-05T03:18:22;6.85;;;3.10;;
59159;SDS011;44941;45.058;20.076;2023-04-05T03:20:53;6.43;;;3.10;;
59159;SDS011;44941;45.058;20.076;2023-04-05T03:23:23;7.00;;;2.97;;
59159;SDS011;44941;45.058;20.076;2023-04-05T03:25:52;9.30;;;3.10;;
59159;SDS011;44941;45.058;20.076;2023-04-05T03:28:19;6.72;;;2.78;;
59159;SDS011;44941;45.058;20.076;2023-04-05T03:30:45;6.60;;;3.22;;
59159;SDS011;44941;45.058;20.076;2023-04-05T03:33:11;7.13;;;3.53;;
59159;SDS011;44941;45.058;20.076;2023-04-05T03:35:37;6.35;;;2.90;;
59159;SDS011;44941;45.058;20.076;2023-04-05T03:38:03;11.85;;;3.13;;
59159;SDS011;44941;45.058;20.076;2023-04-05T03:40:29;6.43;;;2.90;;
59159;SDS011;44941;45.058;20.076;2023-04-05T03:42:55;5.75;;;2.92;;
59159;SDS011;44941;45.058;20.076;2023-04-05T03:45:21;7.93;;;3.15;;
59159;SDS011;44941;45.058;20.076;2023-04-05T03:47:48;8.20;;;3.00;;
59159;SDS011;44941;45.058;20.076;2023-04-05T03:50:14;8.18;;;2.90;;
59159;SDS011;44941;45.058;20.076;2023-04-05T03:52:40;7.15;;;2.90;;
59159;SDS011;44941;45.058;20.076;2023-04-05T03:55:06;7.18;;;3.35;;
59159;SDS011;44941;45.058;20.076;2023-04-05T03:57:33;7.80;;;3.00;;
59159;SDS011;44941;45.058;20.076;2023-04-05T03:59:59;10.52;;;3.58;;
59159;SDS011;44941;45.058;20.076;2023-04-05T04:02:25;8.45;;;3.10;;
59159;SDS011;44941;45.058;20.076;2023-04-05T04:04:51;9.32;;;3.50;;
59159;SDS011;44941;45.058;20.076;2023-04-05T04:07:17;8.95;;;4.05;;
59159;SDS011;44941;45.058;20.076;2023-04-05T04:09:43;9.38;;;3.70;;
59159;SDS011;44941;45.058;20.076;2023-04-05T04:12:09;9.50;;;4.20;;
59159;SDS011;44941;45.058;20.076;2023-04-05T04:14:35;6.22;;;3.03;;
59159;SDS011;44941;45.058;20.076;2023-04-05T04:17:01;7.25;;;3.17;;
59159;SDS011;44941;45.058;20.076;2023-04-05T04:19:27;7.90;;;3.60;;
59159;SDS011;44941;45.058;20.076;2023-04-05T04:21:53;7.85;;;3.78;;
59159;SDS011;44941;45.058;20.076;2023-04-05T04:24:20;7.95;;;3.78;;
59159;SDS011;44941;45.058;20.076;2023-04-05T04:26:46;7.80;;;3.60;;
59159;SDS011;44941;45.058;20.076;2023-04-05T04:29:12;7.63;;;3.72;;
59159;SDS011;44941;45.058;20.076;2023-04-05T04:31:41;8.57;;;3.75;;
59159;SDS011;44941;45.058;20.076;2023-04-05T04:34:12;22.02;;;12.02;;
59159;SDS011;44941;45.058;20.076;2023-04-05T04:36:38;50.88;;;28.52;;
59159;SDS011;44941;45.058;20.076;2023-04-05T04:39:07;23.92;;;13.75;;
59159;SDS011;44941;45.058;20.076;2023-04-05T04:41:34;20.65;;;9.93;;
59159;SDS011;44941;45.058;20.076;2023-04-05T04:44:02;15.10;;;8.07;;
59159;SDS011;44941;45.058;20.076;2023-04-05T04:46:29;12.18;;;7.18;;
59159;SDS011;44941;45.058;20.076;2023-04-05T04:48:58;10.07;;;6.00;;
59159;SDS011;44941;45.058;20.076;2023-04-05T04:51:29;7.85;;;4.43;;
59159;SDS011;44941;45.058;20.076;2023-04-05T04:53:55;9.02;;;4.00;;
59159;SDS011;44941;45.058;20.076;2023-04-05T04:56:21;8.43;;;4.47;;
59159;SDS011;44941;45.058;20.076;2023-04-05T04:58:47;7.93;;;4.25;;
59159;SDS011;44941;45.058;20.076;2023-04-05T05:01:13;10.43;;;4.30;;
59159;SDS011;44941;45.058;20.076;2023-04-05T05:03:40;10.02;;;4.95;;
59159;SDS011;44941;45.058;20.076;2023-04-05T05:06:07;9.55;;;4.47;;
59159;SDS011;44941;45.058;20.076;2023-04-05T05:08:33;9.02;;;4.68;;
59159;SDS011;44941;45.058;20.076;2023-04-05T05:10:59;8.55;;;4.40;;
59159;SDS011;44941;45.058;20.076;2023-04-05T05:13:25;11.13;;;4.68;;
59159;SDS011;44941;45.058;20.076;2023-04-05T05:15:51;9.07;;;4.53;;
59159;SDS011;44941;45.058;20.076;2023-04-05T05:18:17;9.52;;;5.07;;
59159;SDS011;44941;45.058;20.076;2023-04-05T05:20:43;11.30;;;5.63;;
59159;SDS011;44941;45.058;20.076;2023-04-05T05:23:09;11.30;;;5.35;;
59159;SDS011;44941;45.058;20.076;2023-04-05T05:25:35;15.00;;;5.93;;
59159;SDS011;44941;45.058;20.076;2023-04-05T05:28:01;10.70;;;4.72;;
59159;SDS011;44941;45.058;20.076;2023-04-05T05:30:27;9.23;;;5.03;;
59159;SDS011;44941;45.058;20.076;2023-04-05T05:32:53;9.25;;;4.93;;
59159;SDS011;44941;45.058;20.076;2023-04-05T05:35:21;12.07;;;4.82;;
59159;SDS011;44941;45.058;20.076;2023-04-05T05:37:47;10.05;;;5.18;;
59159;SDS011;44941;45.058;20.076;2023-04-05T05:40:13;13.80;;;6.03;;
59159;SDS011;44941;45.058;20.076;2023-04-05T05:42:40;12.38;;;5.57;;
59159;SDS011;44941;45.058;20.076;2023-04-05T05:45:06;13.32;;;5.30;;
59159;SDS011;44941;45.058;20.076;2023-04-05T05:47:32;10.88;;;5.20;;
59159;SDS011;44941;45.058;20.076;2023-04-05T05:49:58;13.25;;;5.43;;
59159;SDS011;44941;45.058;20.076;2023-04-05T05:52:25;10.88;;;5.55;;
59159;SDS011;44941;45.058;20.076;2023-04-05T05:54:51;14.02;;;6.22;;
59159;SDS011;44941;45.058;20.076;2023-04-05T05:57:17;11.82;;;5.50;;
59159;SDS011;44941;45.058;20.076;2023-04-05T05:59:43;13.18;;;5.70;;
59159;SDS011;44941;45.058;20.076;2023-04-05T06:02:09;10.05;;;5.43;;
59159;SDS011;44941;45.058;20.076;2023-04-05T06:04:35;11.73;;;5.40;;
59159;SDS011;44941;45.058;20.076;2023-04-05T06:07:02;11.38;;;4.82;;
59159;SDS011;44941;45.058;20.076;2023-04-05T06:09:28;10.18;;;4.25;;
59159;SDS011;44941;45.058;20.076;2023-04-05T06:11:54;11.88;;;4.88;;
59159;SDS011;44941;45.058;20.076;2023-04-05T06:14:21;12.15;;;5.05;;
59159;SDS011;44941;45.058;20.076;2023-04-05T06:16:47;10.05;;;4.18;;
59159;SDS011;44941;45.058;20.076;2023-04-05T06:19:13;11.73;;;5.50;;
59159;SDS011;44941;45.058;20.076;2023-04-05T06:21:39;12.35;;;6.70;;
59159;SDS011;44941;45.058;20.076;2023-04-05T06:24:05;12.05;;;6.97;;
59159;SDS011;44941;45.058;20.076;2023-04-05T06:26:31;12.07;;;6.05;;
59159;SDS011;44941;45.058;20.076;2023-04-05T06:28:58;11.43;;;5.15;;
59159;SDS011;44941;45.058;20.076;2023-04-05T06:31:30;14.15;;;5.78;;
59159;SDS011;44941;45.058;20.076;2023-04-05T06:33:56;16.92;;;6.43;;
59159;SDS011;44941;45.058;20.076;2023-04-05T06:36:22;11.40;;;5.75;;
59159;SDS011;44941;45.058;20.076;2023-04-05T06:38:49;12.63;;;6.35;;
59159;SDS011;44941;45.058;20.076;2023-04-05T06:41:15;10.93;;;6.40;;
59159;SDS011;44941;45.058;20.076;2023-04-05T06:43:41;11.38;;;4.95;;
59159;SDS011;44941;45.058;20.076;2023-04-05T06:46:07;10.60;;;4.85;;
59159;SDS011;44941;45.058;20.076;2023-04-05T06:48:35;10.27;;;5.35;;
59159;SDS011;44941;45.058;20.076;2023-04-05T06:51:02;14.15;;;7.00;;
59159;SDS011;44941;45.058;20.076;2023-04-05T06:53:28;14.23;;;6.25;;
59159;SDS011;44941;45.058;20.076;2023-04-05T06:55:55;9.82;;;4.53;;
59159;SDS011;44941;45.058;20.076;2023-04-05T06:58:22;10.82;;;5.43;;
59159;SDS011;44941;45.058;20.076;2023-04-05T07:00:51;10.85;;;5.05;;
59159;SDS011;44941;45.058;20.076;2023-04-05T07:03:17;10.45;;;5.50;;
59159;SDS011;44941;45.058;20.076;2023-04-05T07:05:50;12.00;;;5.85;;
59159;SDS011;44941;45.058;20.076;2023-04-05T07:08:17;17.40;;;7.75;;
59159;SDS011;44941;45.058;20.076;2023-04-05T07:10:44;13.57;;;6.88;;
59159;SDS011;44941;45.058;20.076;2023-04-05T07:13:10;12.10;;;5.80;;
59159;SDS011;44941;45.058;20.076;2023-04-05T07:15:36;16.45;;;7.60;;
59159;SDS011;44941;45.058;20.076;2023-04-05T07:18:02;16.23;;;7.07;;
59159;SDS011;44941;45.058;20.076;2023-04-05T07:20:28;12.93;;;5.95;;
59159;SDS011;44941;45.058;20.076;2023-04-05T07:22:54;14.80;;;6.35;;
59159;SDS011;44941;45.058;20.076;2023-04-05T07:25:24;16.70;;;7.63;;
59159;SDS011;44941;45.058;20.076;2023-04-05T07:27:50;13.43;;;6.38;;
59159;SDS011;44941;45.058;20.076;2023-04-05T07:30:16;17.33;;;7.00;;
59159;SDS011;44941;45.058;20.076;2023-04-05T07:32:42;10.80;;;5.45;;
59159;SDS011;44941;45.058;20.076;2023-04-05T07:35:08;13.27;;;6.47;;
59159;SDS011;44941;45.058;20.076;2023-04-05T07:37:35;12.75;;;5.80;;
59159;SDS011;44941;45.058;20.076;2023-04-05T07:40:01;13.00;;;5.57;;
59159;SDS011;44941;45.058;20.076;2023-04-05T07:42:29;13.57;;;6.47;;
59159;SDS011;44941;45.058;20.076;2023-04-05T07:44:56;13.40;;;6.75;;
59159;SDS011;44941;45.058;20.076;2023-04-05T07:47:22;11.48;;;5.72;;
59159;SDS011;44941;45.058;20.076;2023-04-05T07:49:48;10.20;;;4.85;;
59159;SDS011;44941;45.058;20.076;2023-04-05T07:52:14;10.77;;;5.28;;
59159;SDS011;44941;45.058;20.076;2023-04-05T07:54:40;10.80;;;4.90;;
59159;SDS011;44941;45.058;20.076;2023-04-05T07:57:07;9.68;;;4.50;;
59159;SDS011;44941;45.058;20.076;2023-04-05T07:59:34;12.02;;;5.05;;
59159;SDS011;44941;45.058;20.076;2023-04-05T08:02:01;9.95;;;4.63;;
59159;SDS011;44941;45.058;20.076;2023-04-05T08:04:27;11.93;;;5.25;;
59159;SDS011;44941;45.058;20.076;2023-04-05T08:06:53;10.88;;;4.95;;
59159;SDS011;44941;45.058;20.076;2023-04-05T08:09:19;9.75;;;5.30;;
59159;SDS011;44941;45.058;20.076;2023-04-05T08:11:45;9.70;;;4.85;;
59159;SDS011;44941;45.058;20.076;2023-04-05T08:14:11;9.63;;;4.85;;
59159;SDS011;44941;45.058;20.076;2023-04-05T08:16:37;9.35;;;4.53;;
59159;SDS011;44941;45.058;20.076;2023-04-05T08:19:09;12.73;;;5.10;;
59159;SDS011;44941;45.058;20.076;2023-04-05T08:21:35;11.02;;;4.93;;
59159;SDS011;44941;45.058;20.076;2023-04-05T08:24:02;9.93;;;4.13;;
59159;SDS011;44941;45.058;20.076;2023-04-05T08:26:28;12.50;;;4.63;;
59159;SDS011;44941;45.058;20.076;2023-04-05T08:28:54;12.45;;;5.03;;
59159;SDS011;44941;45.058;20.076;2023-04-05T08:31:20;11.85;;;5.72;;
59159;SDS011;44941;45.058;20.076;2023-04-05T08:33:46;8.60;;;4.03;;
59159;SDS011;44941;45.058;20.076;2023-04-05T08:36:12;10.77;;;5.13;;
59159;SDS011;44941;45.058;20.076;2023-04-05T08:38:38;8.77;;;4.75;;
59159;SDS011;44941;45.058;20.076;2023-04-05T08:41:13;8.63;;;4.63;;
59159;SDS011;44941;45.058;20.076;2023-04-05T08:43:55;15.82;;;6.63;;
59159;SDS011;44941;45.058;20.076;2023-04-05T08:46:23;10.10;;;4.93;;
59159;SDS011;44941;45.058;20.076;2023-04-05T08:48:49;10.05;;;5.28;;
59159;SDS011;44941;45.058;20.076;2023-04-05T08:51:21;9.55;;;4.70;;
59159;SDS011;44941;45.058;20.076;2023-04-05T08:53:48;9.45;;;5.10;;
59159;SDS011;44941;45.058;20.076;2023-04-05T08:56:17;12.07;;;5.68;;
59159;SDS011;44941;45.058;20.076;2023-04-05T08:58:46;11.40;;;5.47;;
59159;SDS011;44941;45.058;20.076;2023-04-05T09:01:13;14.10;;;5.53;;
59159;SDS011;44941;45.058;20.076;2023-04-05T09:03:40;11.15;;;5.13;;
59159;SDS011;44941;45.058;20.076;2023-04-05T09:06:07;12.40;;;5.13;;
59159;SDS011;44941;45.058;20.076;2023-04-05T09:08:36;10.60;;;5.72;;
59159;SDS011;44941;45.058;20.076;2023-04-05T09:11:03;14.02;;;5.20;;
59159;SDS011;44941;45.058;20.076;2023-04-05T09:13:30;9.25;;;4.55;;
59159;SDS011;44941;45.058;20.076;2023-04-05T09:15:56;10.38;;;5.30;;
59159;SDS011;44941;45.058;20.076;2023-04-05T09:18:22;11.52;;;4.88;;
59159;SDS011;44941;45.058;20.076;2023-04-05T09:20:48;11.57;;;5.57;;
59159;SDS011;44941;45.058;20.076;2023-04-05T09:23:14;14.30;;;6.18;;
59159;SDS011;44941;45.058;20.076;2023-04-05T09:25:40;10.70;;;5.57;;
59159;SDS011;44941;45.058;20.076;2023-04-05T09:28:10;10.20;;;4.85;;
59159;SDS011;44941;45.058;20.076;2023-04-05T09:30:36;10.07;;;5.60;;
59159;SDS011;44941;45.058;20.076;2023-04-05T09:33:03;8.27;;;4.28;;
59159;SDS011;44941;45.058;20.076;2023-04-05T09:35:30;13.32;;;6.40;;
59159;SDS011;44941;45.058;20.076;2023-04-05T09:40:22;9.27;;;4.55;;
59159;SDS011;44941;45.058;20.076;2023-04-05T09:42:49;13.15;;;5.40;;
59159;SDS011;44941;45.058;20.076;2023-04-05T09:45:17;12.02;;;5.35;;
59159;SDS011;44941;45.058;20.076;2023-04-05T09:47:52;11.40;;;5.30;;
59159;SDS011;44941;45.058;20.076;2023-04-05T09:50:18;15.10;;;5.03;;
59159;SDS011;44941;45.058;20.076;2023-04-05T09:52:45;10.45;;;5.72;;
59159;SDS011;44941;45.058;20.076;2023-04-05T09:55:12;12.32;;;5.68;;
59159;SDS011;44941;45.058;20.076;2023-04-05T09:57:38;14.10;;;5.57;;
59159;SDS011;44941;45.058;20.076;2023-04-05T10:00:05;10.40;;;5.35;;
59159;SDS011;44941;45.058;20.076;2023-04-05T10:02:34;9.63;;;5.07;;
59159;SDS011;44941;45.058;20.076;2023-04-05T10:05:09;9.25;;;4.68;;
59159;SDS011;44941;45.058;20.076;2023-04-05T10:07:43;11.18;;;5.63;;
59159;SDS011;44941;45.058;20.076;2023-04-05T10:10:12;11.35;;;5.05;;
59159;SDS011;44941;45.058;20.076;2023-04-05T10:12:40;10.13;;;4.60;;
59159;SDS011;44941;45.058;20.076;2023-04-05T10:15:07;9.80;;;5.10;;
59159;SDS011;44941;45.058;20.076;2023-04-05T10:17:47;10.45;;;5.32;;
59159;SDS011;44941;45.058;20.076;2023-04-05T10:20:16;11.68;;;5.97;;
59159;SDS011;44941;45.058;20.076;2023-04-05T10:25:12;14.57;;;6.20;;
59159;SDS011;44941;45.058;20.076;2023-04-05T10:27:38;14.55;;;6.55;;
59159;SDS011;44941;45.058;20.076;2023-04-05T10:32:43;10.30;;;4.70;;
59159;SDS011;44941;45.058;20.076;2023-04-05T10:37:42;13.05;;;6.10;;
59159;SDS011;44941;45.058;20.076;2023-04-05T10:40:12;8.73;;;4.45;;
59159;SDS011;44941;45.058;20.076;2023-04-05T10:42:42;7.95;;;3.97;;
59159;SDS011;44941;45.058;20.076;2023-04-05T10:45:08;11.65;;;4.15;;
59159;SDS011;44941;45.058;20.076;2023-04-05T10:47:46;12.27;;;4.65;;
59159;SDS011;44941;45.058;20.076;2023-04-05T10:50:16;10.10;;;4.00;;
59159;SDS011;44941;45.058;20.076;2023-04-05T10:52:44;8.52;;;4.07;;
59159;SDS011;44941;45.058;20.076;2023-04-05T10:55:11;9.25;;;4.10;;
59159;SDS011;44941;45.058;20.076;2023-04-05T10:57:37;10.43;;;4.20;;
59159;SDS011;44941;45.058;20.076;2023-04-05T11:00:04;7.30;;;4.03;;
59159;SDS011;44941;45.058;20.076;2023-04-05T11:02:30;8.75;;;4.45;;
59159;SDS011;44941;45.058;20.076;2023-04-05T11:04:56;7.90;;;4.18;;
59159;SDS011;44941;45.058;20.076;2023-04-05T11:07:30;8.77;;;4.03;;
59159;SDS011;44941;45.058;20.076;2023-04-05T11:10:07;6.77;;;3.50;;
59159;SDS011;44941;45.058;20.076;2023-04-05T11:20:38;9.88;;;4.75;;
59159;SDS011;44941;45.058;20.076;2023-04-05T11:23:05;8.35;;;4.03;;
59159;SDS011;44941;45.058;20.076;2023-04-05T11:25:31;9.95;;;4.75;;
59159;SDS011;44941;45.058;20.076;2023-04-05T11:28:02;9.27;;;4.20;;
59159;SDS011;44941;45.058;20.076;2023-04-05T11:30:45;8.45;;;4.18;;
59159;SDS011;44941;45.058;20.076;2023-04-05T11:33:34;8.50;;;4.22;;
59159;SDS011;44941;45.058;20.076;2023-04-05T11:36:01;9.40;;;4.55;;
59159;SDS011;44941;45.058;20.076;2023-04-05T11:38:27;10.15;;;4.47;;
59159;SDS011;44941;45.058;20.076;2023-04-05T11:43:45;9.35;;;4.10;;
59159;SDS011;44941;45.058;20.076;2023-04-05T11:46:16;8.35;;;4.10;;
59159;SDS011;44941;45.058;20.076;2023-04-05T11:48:47;12.60;;;6.53;;
59159;SDS011;44941;45.058;20.076;2023-04-05T11:51:13;14.23;;;5.43;;
59159;SDS011;44941;45.058;20.076;2023-04-05T11:53:45;11.07;;;5.50;;
59159;SDS011;44941;45.058;20.076;2023-04-05T11:56:11;13.60;;;6.50;;
59159;SDS011;44941;45.058;20.076;2023-04-05T11:58:40;28.77;;;12.35;;
59159;SDS011;44941;45.058;20.076;2023-04-05T12:01:07;10.85;;;5.20;;
59159;SDS011;44941;45.058;20.076;2023-04-05T12:03:34;13.00;;;4.68;;
59159;SDS011;44941;45.058;20.076;2023-04-05T12:06:03;8.98;;;4.18;;
59159;SDS011;44941;45.058;20.076;2023-04-05T12:08:42;11.00;;;5.05;;
59159;SDS011;44941;45.058;20.076;2023-04-05T12:11:24;9.60;;;4.45;;
59159;SDS011;44941;45.058;20.076;2023-04-05T12:13:57;8.80;;;4.60;;
59159;SDS011;44941;45.058;20.076;2023-04-05T12:16:24;9.55;;;4.57;;
59159;SDS011;44941;45.058;20.076;2023-04-05T12:18:57;11.02;;;4.60;;
59159;SDS011;44941;45.058;20.076;2023-04-05T12:21:23;9.80;;;4.82;;
59159;SDS011;44941;45.058;20.076;2023-04-05T12:23:50;9.60;;;5.22;;
59159;SDS011;44941;45.058;20.076;2023-04-05T12:26:16;10.65;;;5.30;;
59159;SDS011;44941;45.058;20.076;2023-04-05T12:31:17;10.98;;;5.82;;
59159;SDS011;44941;45.058;20.076;2023-04-05T12:33:59;15.77;;;7.53;;
59159;SDS011;44941;45.058;20.076;2023-04-05T12:36:26;10.70;;;6.45;;
59159;SDS011;44941;45.058;20.076;2023-04-05T12:38:55;12.00;;;5.97;;
59159;SDS011;44941;45.058;20.076;2023-04-05T12:41:28;10.10;;;4.38;;
59159;SDS011;44941;45.058;20.076;2023-04-05T12:43:54;7.82;;;4.00;;
59159;SDS011;44941;45.058;20.076;2023-04-05T12:46:40;9.85;;;4.75;;
59159;SDS011;44941;45.058;20.076;2023-04-05T12:49:17;8.82;;;4.82;;
59159;SDS011;44941;45.058;20.076;2023-04-05T12:51:46;8.10;;;4.32;;
59159;SDS011;44941;45.058;20.076;2023-04-05T12:54:13;11.50;;;5.55;;
59159;SDS011;44941;45.058;20.076;2023-04-05T12:56:39;10.45;;;5.55;;
59159;SDS011;44941;45.058;20.076;2023-04-05T12:59:05;10.98;;;5.50;;
59159;SDS011;44941;45.058;20.076;2023-04-05T13:01:32;8.73;;;4.68;;
59159;SDS011;44941;45.058;20.076;2023-04-05T13:03:59;10.05;;;4.55;;
59159;SDS011;44941;45.058;20.076;2023-04-05T13:06:25;9.70;;;4.30;;
59159;SDS011;44941;45.058;20.076;2023-04-05T13:08:51;10.88;;;4.15;;
59159;SDS011;44941;45.058;20.076;2023-04-05T13:11:17;11.15;;;5.15;;
59159;SDS011;44941;45.058;20.076;2023-04-05T13:13:43;10.35;;;4.65;;
59159;SDS011;44941;45.058;20.076;2023-04-05T13:16:10;11.10;;;4.97;;
59159;SDS011;44941;45.058;20.076;2023-04-05T13:18:36;8.35;;;4.45;;
59159;SDS011;44941;45.058;20.076;2023-04-05T13:21:02;10.50;;;4.82;;
59159;SDS011;44941;45.058;20.076;2023-04-05T13:23:33;9.35;;;4.60;;
59159;SDS011;44941;45.058;20.076;2023-04-05T13:25:59;9.02;;;4.90;;
59159;SDS011;44941;45.058;20.076;2023-04-05T13:28:25;9.40;;;4.32;;
59159;SDS011;44941;45.058;20.076;2023-04-05T13:30:52;10.00;;;4.75;;
59159;SDS011;44941;45.058;20.076;2023-04-05T13:33:18;7.07;;;4.03;;
59159;SDS011;44941;45.058;20.076;2023-04-05T13:35:44;8.95;;;4.32;;
59159;SDS011;44941;45.058;20.076;2023-04-05T13:38:10;10.85;;;5.80;;
59159;SDS011;44941;45.058;20.076;2023-04-05T13:40:37;15.40;;;6.72;;
59159;SDS011;44941;45.058;20.076;2023-04-05T13:43:03;21.35;;;10.82;;
59159;SDS011;44941;45.058;20.076;2023-04-05T13:45:29;20.88;;;11.07;;
59159;SDS011;44941;45.058;20.076;2023-04-05T13:47:56;13.88;;;6.95;;
59159;SDS011;44941;45.058;20.076;2023-04-05T13:50:23;17.27;;;8.85;;
59159;SDS011;44941;45.058;20.076;2023-04-05T13:52:49;20.45;;;11.40;;
59159;SDS011;44941;45.058;20.076;2023-04-05T13:55:15;12.25;;;6.80;;
59159;SDS011;44941;45.058;20.076;2023-04-05T13:57:41;12.60;;;6.75;;
59159;SDS011;44941;45.058;20.076;2023-04-05T14:00:08;14.55;;;6.68;;
59159;SDS011;44941;45.058;20.076;2023-04-05T14:02:34;13.88;;;6.10;;
59159;SDS011;44941;45.058;20.076;2023-04-05T14:05:08;15.35;;;7.97;;
59159;SDS011;44941;45.058;20.076;2023-04-05T14:07:34;15.25;;;8.13;;
59159;SDS011;44941;45.058;20.076;2023-04-05T14:10:00;13.55;;;6.18;;
59159;SDS011;44941;45.058;20.076;2023-04-05T14:12:27;9.93;;;5.63;;
59159;SDS011;44941;45.058;20.076;2023-04-05T14:14:54;11.10;;;5.63;;
59159;SDS011;44941;45.058;20.076;2023-04-05T14:17:20;13.43;;;6.60;;
59159;SDS011;44941;45.058;20.076;2023-04-05T14:19:46;12.98;;;6.25;;
59159;SDS011;44941;45.058;20.076;2023-04-05T14:22:12;10.93;;;5.90;;
59159;SDS011;44941;45.058;20.076;2023-04-05T14:24:38;16.52;;;7.55;;
59159;SDS011;44941;45.058;20.076;2023-04-05T14:27:04;14.80;;;8.27;;
59159;SDS011;44941;45.058;20.076;2023-04-05T14:29:30;22.67;;;10.50;;
59159;SDS011;44941;45.058;20.076;2023-04-05T14:31:57;12.77;;;6.43;;
59159;SDS011;44941;45.058;20.076;2023-04-05T14:34:23;12.50;;;6.65;;
59159;SDS011;44941;45.058;20.076;2023-04-05T14:36:49;11.10;;;5.82;;
59159;SDS011;44941;45.058;20.076;2023-04-05T14:39:15;12.90;;;6.40;;
59159;SDS011;44941;45.058;20.076;2023-04-05T14:41:41;13.65;;;6.55;;
59159;SDS011;44941;45.058;20.076;2023-04-05T14:46:35;11.15;;;5.93;;
59159;SDS011;44941;45.058;20.076;2023-04-05T14:52:05;11.70;;;5.50;;
59159;SDS011;44941;45.058;20.076;2023-04-05T14:54:34;16.63;;;8.48;;
59159;SDS011;44941;45.058;20.076;2023-04-05T14:57:00;15.05;;;6.32;;
59159;SDS011;44941;45.058;20.076;2023-04-05T14:59:26;18.45;;;8.80;;
59159;SDS011;44941;45.058;20.076;2023-04-05T15:01:52;12.38;;;5.72;;
59159;SDS011;44941;45.058;20.076;2023-04-05T15:07:06;11.77;;;5.88;;
59159;SDS011;44941;45.058;20.076;2023-04-05T15:09:32;9.60;;;5.28;;
59159;SDS011;44941;45.058;20.076;2023-04-05T15:11:59;15.02;;;7.65;;
59159;SDS011;44941;45.058;20.076;2023-04-05T15:14:26;16.08;;;8.23;;
59159;SDS011;44941;45.058;20.076;2023-04-05T15:16:52;14.32;;;7.78;;
59159;SDS011;44941;45.058;20.076;2023-04-05T15:19:18;13.30;;;5.78;;